Check out our new BloomSky Weather System.

Active alerts

Houston, TX
  Details for Houston, TX River Flood Warning  +1 additional alert
Fort Bend, TX
  Details for Fort Bend, TX River Flood Warning  +1 additional alert


Thunder radar  blitzortung!


Rain radar more information rain snow radar


Visit our other weather sites:

Template documentation
and downloads

And another site



Weather Underground History page Text

Daily Summary for January 30, 2017 Units:  English    Metric   Both
« Previous Day
Next Day »
Daily Weekly Monthly Yearly Custom
  High: Low: Average:
Temperature: TemperatureF °F 41.7 °F 59.6 °F
Dew Point: DewpointF °F 32.5 °F 37.6 °F
Humidity: Humidity % 20 % 50 %
Wind Speed: WindSpeedMPH mph 0.0 mph 1.8 mph
Wind Gust: WindSpeedGustMPH mph - -
Wind:- - SSW
Pressure: PressureIn in 30.11 in -
Precipitation: 0.00 in    
Historical Graphs
 
 
Tabular Data for January 30, 2017
Time Temperature Dew Point Pressure Wind Wind Speed Wind Gust Humidity Rainfall Rate (Hourly)
TemperatureF °F DewpointF °F PressureIn in Calm     Humidity % HourlyPrecipIn in
00:04 45.7 °F 38.5 °F 30.25 in Calm   1.0 mph 76 % 0.00 in
00:09 45.5 °F 38.1 °F 30.25 in Calm     75 % 0.00 in
00:14 45.1 °F 37.8 °F 30.25 in Calm     75 % 0.00 in
00:19 44.8 °F 37.4 °F 30.25 in Calm     75 % 0.00 in
00:24 44.4 °F 37.4 °F 30.24 in Calm     76 % 0.00 in
00:29 44.1 °F 37.0 °F 30.24 in Calm     76 % 0.00 in
00:34 43.7 °F 36.7 °F 30.24 in Calm     76 % 0.00 in
00:39 43.5 °F 36.9 °F 30.24 in Calm     77 % 0.00 in
00:44 43.2 °F 36.7 °F 30.24 in Calm     78 % 0.00 in
00:49 43.2 °F 37.4 °F 30.24 in Calm     80 % 0.00 in
00:54 43.5 °F 37.4 °F 30.24 in Calm     79 % 0.00 in
00:59 43.3 °F 37.2 °F 30.24 in Calm     79 % 0.00 in
01:05 43.2 °F 36.7 °F 30.23 in Calm     78 % 0.00 in
01:10 42.6 °F 36.5 °F 30.23 in Calm     79 % 0.00 in
01:15 42.4 °F 36.3 °F 30.23 in Calm     79 % 0.00 in
01:20 42.4 °F 37.0 °F 30.23 in Calm     81 % 0.00 in
01:25 42.8 °F 37.9 °F 30.23 in Calm     83 % 0.00 in
01:30 43.3 °F 38.3 °F 30.23 in Calm     82 % 0.00 in
01:35 43.9 °F 38.5 °F 30.23 in Calm     81 % 0.00 in
01:40 44.1 °F 38.3 °F 30.23 in Calm     80 % 0.00 in
01:45 44.1 °F 37.9 °F 30.23 in Calm     79 % 0.00 in
01:51 44.1 °F 37.6 °F 30.23 in Calm     78 % 0.00 in
01:56 43.7 °F 37.6 °F 30.22 in Calm     79 % 0.00 in
02:01 43.5 °F 37.0 °F 30.22 in Calm     78 % 0.00 in
02:06 43.3 °F 37.2 °F 30.22 in Calm     79 % 0.00 in
02:11 43.9 °F 37.8 °F 30.22 in Calm     79 % 0.00 in
02:16 44.2 °F 37.6 °F 30.22 in Calm     77 % 0.00 in
02:21 44.2 °F 37.6 °F 30.22 in Calm     77 % 0.00 in
02:26 44.2 °F 37.2 °F 30.21 in Calm     76 % 0.00 in
02:31 44.1 °F 37.0 °F 30.21 in Calm     76 % 0.00 in
02:36 44.2 °F 37.2 °F 30.21 in Calm     76 % 0.00 in
02:41 44.2 °F 36.9 °F 30.21 in Calm     75 % 0.00 in
02:46 43.9 °F 36.5 °F 30.20 in Calm     75 % 0.00 in
02:51 43.3 °F 36.0 °F 30.20 in Calm     75 % 0.00 in
02:56 43.0 °F 35.6 °F 30.20 in Calm     75 % 0.00 in
03:01 42.4 °F 35.8 °F 30.20 in Calm     77 % 0.00 in
03:06 42.1 °F 36.0 °F 30.20 in Calm     79 % 0.00 in
03:11 41.9 °F 36.1 °F 30.20 in Calm     80 % 0.00 in
03:16 41.9 °F 36.9 °F 30.20 in Calm     82 % 0.00 in
03:21 41.7 °F 36.7 °F 30.20 in Calm     82 % 0.00 in
03:26 42.1 °F 37.2 °F 30.20 in Calm   1.0 mph 83 % 0.00 in
03:31 42.4 °F 37.4 °F 30.20 in Calm   1.0 mph 82 % 0.00 in
03:36 42.3 °F 36.9 °F 30.20 in Calm   1.0 mph 81 % 0.00 in
03:41 42.3 °F 37.2 °F 30.20 in Calm   1.0 mph 82 % 0.00 in
03:46 42.4 °F 37.4 °F 30.20 in Calm   1.0 mph 82 % 0.00 in
03:51 42.6 °F 37.2 °F 30.20 in Calm   1.0 mph 81 % 0.00 in
03:56 42.4 °F 37.0 °F 30.20 in Calm     81 % 0.00 in
04:01 42.4 °F 37.0 °F 30.20 in Calm     81 % 0.00 in
04:06 42.8 °F 37.4 °F 30.20 in Calm     81 % 0.00 in
04:11 43.2 °F 37.4 °F 30.20 in Calm   1.0 mph 80 % 0.00 in
04:16 43.2 °F 37.0 °F 30.20 in Calm   1.0 mph 79 % 0.00 in
04:21 43.0 °F 36.9 °F 30.20 in Calm   1.0 mph 79 % 0.00 in
04:26 42.6 °F 36.3 °F 30.20 in Calm     78 % 0.00 in
04:31 42.4 °F 36.3 °F 30.20 in Calm   1.0 mph 79 % 0.00 in
04:36 42.6 °F 37.2 °F 30.20 in Calm   1.0 mph 81 % 0.00 in
04:41 42.8 °F 37.4 °F 30.20 in Calm   1.0 mph 81 % 0.00 in
04:47 42.6 °F 36.9 °F 30.20 in Calm   1.0 mph 80 % 0.00 in
04:52 42.6 °F 36.9 °F 30.21 in Calm   1.0 mph 80 % 0.00 in
04:57 43.0 °F 37.2 °F 30.21 in Calm   1.0 mph 80 % 0.00 in
05:02 43.3 °F 37.2 °F 30.21 in Calm   2.0 mph 79 % 0.00 in
05:06 43.9 °F 37.2 °F 30.20 in Calm   2.0 mph 77 % 0.00 in
05:11 44.4 °F 37.0 °F 30.21 in Calm   2.0 mph 75 % 0.00 in
05:16 44.8 °F 37.0 °F 30.21 in Calm   2.0 mph 74 % 0.00 in
05:21 44.8 °F 37.0 °F 30.21 in Calm   1.0 mph 74 % 0.00 in
05:26 45.0 °F 36.9 °F 30.21 in Calm   1.0 mph 73 % 0.00 in
05:31 45.1 °F 36.7 °F 30.21 in Calm   1.0 mph 72 % 0.00 in
05:36 45.1 °F 36.7 °F 30.21 in Calm   1.0 mph 72 % 0.00 in
05:41 45.0 °F 36.5 °F 30.21 in Calm   1.0 mph 72 % 0.00 in
05:47 44.8 °F 36.3 °F 30.21 in Calm   1.0 mph 72 % 0.00 in
05:52 44.8 °F 36.7 °F 30.21 in Calm   1.0 mph 73 % 0.00 in
05:57 44.8 °F 36.7 °F 30.21 in Calm   1.0 mph 73 % 0.00 in
06:02 44.6 °F 36.5 °F 30.21 in Calm   1.0 mph 73 % 0.00 in
06:07 44.4 °F 36.3 °F 30.21 in Calm   1.0 mph 73 % 0.00 in
06:12 44.2 °F 36.1 °F 30.22 in Calm   1.0 mph 73 % 0.00 in
06:17 43.9 °F 35.8 °F 30.21 in Calm     73 % 0.00 in
06:22 43.9 °F 36.5 °F 30.22 in Calm     75 % 0.00 in
06:27 44.2 °F 36.9 °F 30.22 in Calm     75 % 0.00 in
06:32 44.2 °F 36.5 °F 30.22 in Calm   1.0 mph 74 % 0.00 in
06:37 44.2 °F 36.5 °F 30.22 in Calm   1.0 mph 74 % 0.00 in
06:42 44.2 °F 36.5 °F 30.22 in Calm   1.0 mph 74 % 0.00 in
06:47 44.2 °F 36.5 °F 30.22 in Calm   1.0 mph 74 % 0.00 in
06:52 44.1 °F 36.3 °F 30.22 in Calm   1.0 mph 74 % 0.00 in
06:57 44.1 °F 36.7 °F 30.22 in Calm   1.0 mph 75 % 0.00 in
07:02 43.9 °F 36.5 °F 30.22 in Calm   1.0 mph 75 % 0.00 in
07:06 43.9 °F 36.5 °F 30.22 in Calm   1.0 mph 75 % 0.00 in
07:11 43.5 °F 36.5 °F 30.23 in Calm     76 % 0.00 in
07:17 43.3 °F 36.3 °F 30.23 in Calm     76 % 0.00 in
07:22 43.0 °F 36.0 °F 30.23 in Calm     76 % 0.00 in
07:27 42.4 °F 35.8 °F 30.23 in Calm     77 % 0.00 in
07:32 42.3 °F 35.6 °F 30.23 in Calm     77 % 0.00 in
07:37 42.3 °F 36.0 °F 30.23 in Calm     78 % 0.00 in
07:42 42.3 °F 36.1 °F 30.23 in Calm     79 % 0.00 in
07:47 42.4 °F 36.7 °F 30.24 in Calm     80 % 0.00 in
07:52 43.0 °F 37.2 °F 30.24 in Calm     80 % 0.00 in
07:57 44.2 °F 38.8 °F 30.24 in Calm   1.0 mph 81 % 0.00 in
08:02 46.2 °F 40.6 °F 30.24 in Calm   1.0 mph 81 % 0.00 in
08:07 47.7 °F 40.1 °F 30.24 in Calm   1.0 mph 75 % 0.00 in
08:12 49.3 °F 41.4 °F 30.24 in Calm   1.0 mph 74 % 0.00 in
08:17 50.7 °F 42.4 °F 30.24 in Calm   1.0 mph 73 % 0.00 in
08:22 52.2 °F 41.5 °F 30.25 in Calm   1.0 mph 67 % 0.00 in
08:27 53.1 °F 41.2 °F 30.25 in Calm   2.0 mph 64 % 0.00 in
08:32 54.0 °F 42.1 °F 30.25 in Calm   2.0 mph 64 % 0.00 in
08:37 54.7 °F 41.9 °F 30.25 in SSW 1.0 mph 2.0 mph 62 % 0.00 in
08:42 55.6 °F 43.2 °F 30.25 in Calm   3.0 mph 63 % 0.00 in
08:47 56.1 °F 41.5 °F 30.25 in SW 2.0 mph 3.0 mph 58 % 0.00 in
08:52 57.0 °F 42.8 °F 30.25 in SW 1.0 mph 3.0 mph 59 % 0.00 in
08:57 57.6 °F 41.5 °F 30.25 in SSW 3.0 mph 4.0 mph 55 % 0.00 in
09:02 58.5 °F 42.4 °F 30.25 in Calm   4.0 mph 55 % 0.00 in
09:07 59.5 °F 42.4 °F 30.25 in Calm   4.0 mph 53 % 0.00 in
09:12 60.4 °F 40.6 °F 30.25 in Calm   4.0 mph 48 % 0.00 in
09:17 60.3 °F 40.5 °F 30.25 in Calm   3.0 mph 48 % 0.00 in
09:22 60.6 °F 40.8 °F 30.25 in Calm   3.0 mph 48 % 0.00 in
09:27 61.3 °F 40.5 °F 30.25 in Calm   3.0 mph 46 % 0.00 in
09:32 61.5 °F 39.9 °F 30.25 in WSW 2.0 mph 4.0 mph 45 % 0.00 in
09:37 61.7 °F 40.6 °F 30.25 in WNW 2.0 mph 4.0 mph 46 % 0.00 in
09:42 62.1 °F 41.0 °F 30.25 in WSW 2.0 mph 5.0 mph 46 % 0.00 in
09:47 63.0 °F 41.9 °F 30.26 in WSW 2.0 mph 5.0 mph 46 % 0.00 in
09:52 63.3 °F 40.5 °F 30.26 in West 1.0 mph 5.0 mph 43 % 0.00 in
09:57 63.3 °F 41.0 °F 30.26 in West 1.0 mph 4.0 mph 44 % 0.00 in
10:02 64.2 °F 41.9 °F 30.26 in Calm   4.0 mph 44 % 0.00 in
10:08 65.8 °F 41.5 °F 30.26 in WSW 3.0 mph 3.0 mph 41 % 0.00 in
10:13 66.6 °F 42.1 °F 30.26 in SW 1.0 mph 3.0 mph 41 % 0.00 in
10:18 66.9 °F 39.7 °F 30.26 in WNW 3.0 mph 4.0 mph 37 % 0.00 in
10:20 66.7 °F 40.3 °F 30.26 in West 1.0 mph 5.0 mph 38 % 0.00 in
10:23 66.7 °F 40.3 °F 30.26 in SW 2.0 mph 5.0 mph 38 % 0.00 in
10:25 66.7 °F 40.3 °F 30.26 in NW 1.0 mph 5.0 mph 38 % 0.00 in
10:30 66.9 °F 39.7 °F 30.26 in NNW 3.0 mph 6.0 mph 37 % 0.00 in
10:36 67.5 °F 41.0 °F 30.26 in WSW 2.0 mph 7.0 mph 38 % 0.00 in
10:41 67.8 °F 39.9 °F 30.26 in South 1.0 mph 7.0 mph 36 % 0.00 in
10:46 68.5 °F 42.6 °F 30.25 in SSW 2.0 mph 7.0 mph 39 % 0.00 in
10:56 70.2 °F 41.2 °F 30.25 in SW 2.0 mph 4.0 mph 35 % 0.00 in
11:01 70.2 °F 39.7 °F 30.25 in Calm   5.0 mph 33 % 0.00 in
11:07 70.5 °F 42.3 °F 30.25 in SSW 3.0 mph 5.0 mph 36 % 0.00 in
11:12 71.4 °F 41.5 °F 30.25 in WSW 2.0 mph 5.0 mph 34 % 0.00 in
11:17 72.0 °F 39.7 °F 30.25 in West 2.0 mph 5.0 mph 31 % 0.00 in
11:22 72.0 °F 42.1 °F 30.24 in West 3.0 mph 5.0 mph 34 % 0.00 in
11:27 72.1 °F 42.3 °F 30.24 in SSW 1.0 mph 8.0 mph 34 % 0.00 in
11:32 72.7 °F 39.4 °F 30.24 in WSW 2.0 mph 8.0 mph 30 % 0.00 in
11:37 73.6 °F 42.6 °F 30.24 in SW 3.0 mph 8.0 mph 33 % 0.00 in
11:42 74.1 °F 41.5 °F 30.23 in SW 5.0 mph 6.0 mph 31 % 0.00 in
11:47 74.5 °F 40.1 °F 30.23 in South 2.0 mph 8.0 mph 29 % 0.00 in
11:52 74.5 °F 41.0 °F 30.22 in SSW 5.0 mph 8.0 mph 30 % 0.00 in
11:57 74.7 °F 39.4 °F 30.22 in SW 4.0 mph 8.0 mph 28 % 0.00 in
12:03 74.5 °F 38.3 °F 30.22 in West 2.0 mph 8.0 mph 27 % 0.00 in
12:08 74.3 °F 37.2 °F 30.21 in NW 1.0 mph 8.0 mph 26 % 0.00 in
12:13 75.0 °F 38.8 °F 30.21 in South 5.0 mph 8.0 mph 27 % 0.00 in
12:15 75.4 °F 39.0 °F 30.21 in WNW 3.0 mph 8.0 mph 27 % 0.00 in
12:20 75.9 °F 37.6 °F 30.20 in West 2.0 mph 6.0 mph 25 % 0.00 in
12:25 76.1 °F 35.6 °F 30.20 in WSW 3.0 mph 8.0 mph 23 % 0.00 in
12:30 76.1 °F 35.6 °F 30.20 in SSW 6.0 mph 8.0 mph 23 % 0.00 in
12:35 76.5 °F 36.0 °F 30.19 in SSW 3.0 mph 9.0 mph 23 % 0.00 in
12:40 76.5 °F 37.0 °F 30.19 in WSW 6.0 mph 11.0 mph 24 % 0.00 in
12:45 76.5 °F 33.6 °F 30.19 in SW 5.0 mph 12.0 mph 21 % 0.00 in
12:50 76.6 °F 32.5 °F 30.19 in WSW 2.0 mph 12.0 mph 20 % 0.00 in
12:55 76.8 °F 35.1 °F 30.18 in South 6.0 mph 12.0 mph 22 % 0.00 in
13:00 76.6 °F 34.9 °F 30.18 in SW 4.0 mph 12.0 mph 22 % 0.00 in
13:05 76.6 °F 36.1 °F 30.18 in South 2.0 mph 12.0 mph 23 % 0.00 in
13:10 77.2 °F 36.5 °F 30.17 in West 2.0 mph 12.0 mph 23 % 0.00 in
13:15 77.7 °F 37.0 °F 30.17 in SW 8.0 mph 10.0 mph 23 % 0.00 in
13:20 77.7 °F 35.8 °F 30.17 in WSW 2.0 mph 9.0 mph 22 % 0.00 in
13:25 77.7 °F 34.7 °F 30.17 in SW 1.0 mph 9.0 mph 21 % 0.00 in
13:30 77.9 °F 37.0 °F 30.17 in SSW 3.0 mph 10.0 mph 23 % 0.00 in
13:35 77.7 °F 38.1 °F 30.16 in SSW 1.0 mph 10.0 mph 24 % 0.00 in
13:41 77.9 °F 37.0 °F 30.16 in SSW 6.0 mph 10.0 mph 23 % 0.00 in
13:46 77.4 °F 38.8 °F 30.16 in South 5.0 mph 12.0 mph 25 % 0.00 in
13:51 77.0 °F 36.3 °F 30.16 in SSW 2.0 mph 12.0 mph 23 % 0.00 in
13:56 77.4 °F 36.7 °F 30.15 in North 1.0 mph 12.0 mph 23 % 0.00 in
14:01 77.5 °F 36.9 °F 30.15 in SSW 7.0 mph 12.0 mph 23 % 0.00 in
14:06 77.5 °F 35.8 °F 30.15 in West 2.0 mph 9.0 mph 22 % 0.00 in
14:11 77.5 °F 34.5 °F 30.15 in SSW 6.0 mph 9.0 mph 21 % 0.00 in
14:16 77.5 °F 33.3 °F 30.15 in West 4.0 mph 9.0 mph 20 % 0.00 in
14:21 77.7 °F 33.4 °F 30.14 in SW 7.0 mph 9.0 mph 20 % 0.00 in
14:26 77.5 °F 33.3 °F 30.14 in West 3.0 mph 13.0 mph 20 % 0.00 in
14:31 77.7 °F 35.8 °F 30.14 in SSE 9.0 mph 13.0 mph 22 % 0.00 in
14:36 78.1 °F 33.8 °F 30.14 in SSW 3.0 mph 13.0 mph 20 % 0.00 in
14:41 77.5 °F 35.8 °F 30.14 in SW 4.0 mph 14.0 mph 22 % 0.00 in
14:46 77.4 °F 34.3 °F 30.14 in SSE 1.0 mph 14.0 mph 21 % 0.00 in
14:51 77.5 °F 35.8 °F 30.14 in NNW 5.0 mph 14.0 mph 22 % 0.00 in
14:56 77.5 °F 35.8 °F 30.14 in SSW 4.0 mph 11.0 mph 22 % 0.00 in
15:01 77.7 °F 34.7 °F 30.13 in South 7.0 mph 11.0 mph 21 % 0.00 in
15:06 77.5 °F 35.8 °F 30.13 in SSW 4.0 mph 12.0 mph 22 % 0.00 in
15:11 77.9 °F 33.6 °F 30.13 in SSW 2.0 mph 12.0 mph 20 % 0.00 in
15:16 77.7 °F 34.7 °F 30.13 in SW 4.0 mph 12.0 mph 21 % 0.00 in
15:21 77.7 °F 35.8 °F 30.13 in SSE 2.0 mph 12.0 mph 22 % 0.00 in
15:26 77.7 °F 33.4 °F 30.13 in SSW 8.0 mph 12.0 mph 20 % 0.00 in
15:31 77.5 °F 33.3 °F 30.13 in SSW 7.0 mph 11.0 mph 20 % 0.00 in
15:37 77.2 °F 34.2 °F 30.13 in NW 4.0 mph 12.0 mph 21 % 0.00 in
15:42 77.5 °F 34.5 °F 30.13 in SSW 4.0 mph 12.0 mph 21 % 0.00 in
15:47 77.7 °F 33.4 °F 30.13 in SW 3.0 mph 12.0 mph 20 % 0.00 in
15:52 77.7 °F 34.7 °F 30.12 in SW 5.0 mph 8.0 mph 21 % 0.00 in
15:57 77.5 °F 33.3 °F 30.12 in South 4.0 mph 12.0 mph 20 % 0.00 in
16:02 77.5 °F 34.5 °F 30.12 in WNW 5.0 mph 12.0 mph 21 % 0.00 in
16:07 77.7 °F 34.7 °F 30.12 in SSW 4.0 mph 12.0 mph 21 % 0.00 in
16:12 77.5 °F 35.8 °F 30.12 in SSW 4.0 mph 8.0 mph 22 % 0.00 in
16:17 77.7 °F 34.7 °F 30.13 in SW 6.0 mph 7.0 mph 21 % 0.00 in
16:22 77.2 °F 34.2 °F 30.12 in South 2.0 mph 11.0 mph 21 % 0.00 in
16:27 77.0 °F 35.2 °F 30.12 in SW 1.0 mph 11.0 mph 22 % 0.00 in
16:32 76.6 °F 34.9 °F 30.13 in South 4.0 mph 11.0 mph 22 % 0.00 in
16:37 76.6 °F 33.8 °F 30.13 in SSW 3.0 mph 10.0 mph 21 % 0.00 in
16:42 76.5 °F 34.9 °F 30.13 in SSW 7.0 mph 10.0 mph 22 % 0.00 in
16:47 76.3 °F 34.7 °F 30.13 in SW 2.0 mph 10.0 mph 22 % 0.00 in
16:52 75.9 °F 35.4 °F 30.13 in SW 4.0 mph 10.0 mph 23 % 0.00 in
16:57 75.6 °F 36.3 °F 30.13 in SSW 5.0 mph 10.0 mph 24 % 0.00 in
17:02 75.4 °F 35.1 °F 30.13 in SSW 3.0 mph 10.0 mph 23 % 0.00 in
17:07 75.0 °F 34.7 °F 30.13 in SSW 3.0 mph 10.0 mph 23 % 0.00 in
17:12 74.8 °F 34.5 °F 30.13 in SSW 3.0 mph 9.0 mph 23 % 0.00 in
17:17 74.7 °F 34.3 °F 30.13 in SW 1.0 mph 9.0 mph 23 % 0.00 in
17:22 74.1 °F 35.1 °F 30.13 in West 5.0 mph 7.0 mph 24 % 0.00 in
17:27 73.8 °F 34.7 °F 30.13 in SW 1.0 mph 7.0 mph 24 % 0.00 in
17:32 73.2 °F 35.2 °F 30.13 in SSW 5.0 mph 7.0 mph 25 % 0.00 in
17:37 72.9 °F 35.1 °F 30.13 in Calm   7.0 mph 25 % 0.00 in
17:42 72.3 °F 34.5 °F 30.12 in SSE 3.0 mph 7.0 mph 25 % 0.00 in
17:47 72.0 °F 35.2 °F 30.12 in SW 2.0 mph 7.0 mph 26 % 0.00 in
17:52 71.4 °F 34.7 °F 30.12 in SSW 1.0 mph 5.0 mph 26 % 0.00 in
17:57 71.1 °F 34.5 °F 30.13 in South 1.0 mph 5.0 mph 26 % 0.00 in
18:02 70.5 °F 34.9 °F 30.12 in SSW 1.0 mph 5.0 mph 27 % 0.00 in
18:07 70.2 °F 34.7 °F 30.12 in SSW 2.0 mph 4.0 mph 27 % 0.00 in
18:12 70.0 °F 35.4 °F 30.13 in South 1.0 mph 4.0 mph 28 % 0.00 in
18:17 69.4 °F 34.9 °F 30.12 in Calm   3.0 mph 28 % 0.00 in
18:22 68.7 °F 35.2 °F 30.12 in SSE 1.0 mph 3.0 mph 29 % 0.00 in
18:27 68.4 °F 35.8 °F 30.12 in Calm   1.0 mph 30 % 0.00 in
18:32 67.6 °F 35.1 °F 30.12 in Calm   1.0 mph 30 % 0.00 in
18:37 66.9 °F 35.2 °F 30.12 in Calm   1.0 mph 31 % 0.00 in
18:42 66.4 °F 35.6 °F 30.12 in Calm   1.0 mph 32 % 0.00 in
18:47 65.5 °F 35.6 °F 30.12 in Calm     33 % 0.00 in
18:52 64.6 °F 35.6 °F 30.12 in Calm     34 % 0.00 in
18:57 63.9 °F 36.3 °F 30.12 in Calm     36 % 0.00 in
19:02 63.1 °F 36.5 °F 30.12 in Calm     37 % 0.00 in
19:07 62.6 °F 36.7 °F 30.12 in Calm     38 % 0.00 in
19:12 62.1 °F 36.9 °F 30.12 in Calm     39 % 0.00 in
19:17 61.3 °F 36.9 °F 30.12 in Calm     40 % 0.00 in
19:22 61.0 °F 37.0 °F 30.12 in Calm     41 % 0.00 in
19:27 60.3 °F 37.0 °F 30.12 in Calm     42 % 0.00 in
19:32 59.4 °F 36.9 °F 30.12 in Calm     43 % 0.00 in
19:37 58.8 °F 37.6 °F 30.13 in SSW 1.0 mph 1.0 mph 45 % 0.00 in
19:42 60.4 °F 37.8 °F 30.13 in SSW 5.0 mph 8.0 mph 43 % 0.00 in
19:47 62.4 °F 38.5 °F 30.13 in South 1.0 mph 8.0 mph 41 % 0.00 in
19:52 63.1 °F 37.8 °F 30.13 in SSW 2.0 mph 8.0 mph 39 % 0.00 in
19:57 64.0 °F 37.9 °F 30.13 in South 2.0 mph 8.0 mph 38 % 0.00 in
20:02 64.0 °F 37.9 °F 30.13 in SSE 3.0 mph 6.0 mph 38 % 0.00 in
20:07 63.9 °F 37.8 °F 30.13 in South 4.0 mph 6.0 mph 38 % 0.00 in
20:12 64.0 °F 37.9 °F 30.13 in SSW 3.0 mph 6.0 mph 38 % 0.00 in
20:17 64.2 °F 38.1 °F 30.13 in SSW 4.0 mph 7.0 mph 38 % 0.00 in
20:22 64.2 °F 38.1 °F 30.14 in SW 3.0 mph 8.0 mph 38 % 0.00 in
20:27 64.2 °F 38.1 °F 30.14 in South 2.0 mph 8.0 mph 38 % 0.00 in
20:32 64.0 °F 37.9 °F 30.14 in SSE 2.0 mph 8.0 mph 38 % 0.00 in
20:37 63.9 °F 37.8 °F 30.14 in SSE 4.0 mph 8.0 mph 38 % 0.00 in
20:42 63.9 °F 38.5 °F 30.14 in SSW 5.0 mph 9.0 mph 39 % 0.00 in
20:47 63.7 °F 38.3 °F 30.14 in SSW 6.0 mph 9.0 mph 39 % 0.00 in
20:52 63.5 °F 38.1 °F 30.14 in South 4.0 mph 9.0 mph 39 % 0.00 in
20:57 63.1 °F 38.5 °F 30.14 in South 4.0 mph 8.0 mph 40 % 0.00 in
21:02 63.0 °F 38.3 °F 30.14 in SW 5.0 mph 8.0 mph 40 % 0.00 in
21:07 63.0 °F 38.3 °F 30.14 in South 3.0 mph 9.0 mph 40 % 0.00 in
21:12 62.8 °F 38.1 °F 30.14 in SSW 7.0 mph 9.0 mph 40 % 0.00 in
21:17 62.4 °F 37.8 °F 30.14 in South 3.0 mph 10.0 mph 40 % 0.00 in
21:22 62.2 °F 37.6 °F 30.14 in SSW 1.0 mph 10.0 mph 40 % 0.00 in
21:27 62.1 °F 37.4 °F 30.14 in South 3.0 mph 10.0 mph 40 % 0.00 in
21:32 61.9 °F 37.9 °F 30.14 in South 3.0 mph 8.0 mph 41 % 0.00 in
21:37 61.5 °F 37.6 °F 30.14 in SSW 4.0 mph 9.0 mph 41 % 0.00 in
21:42 61.5 °F 37.6 °F 30.14 in SSW 3.0 mph 9.0 mph 41 % 0.00 in
21:48 61.2 °F 37.9 °F 30.13 in SSE 5.0 mph 9.0 mph 42 % 0.00 in
21:53 61.2 °F 37.9 °F 30.14 in South 3.0 mph 7.0 mph 42 % 0.00 in
21:58 60.8 °F 38.1 °F 30.14 in SW 5.0 mph 7.0 mph 43 % 0.00 in
22:03 60.6 °F 37.9 °F 30.14 in SSE 2.0 mph 7.0 mph 43 % 0.00 in
22:08 60.4 °F 38.5 °F 30.14 in SE 5.0 mph 7.0 mph 44 % 0.00 in
22:13 60.4 °F 38.5 °F 30.14 in SE 5.0 mph 7.0 mph 44 % 0.00 in
22:18 60.3 °F 38.8 °F 30.13 in SSW 3.0 mph 7.0 mph 45 % 0.00 in
22:23 60.1 °F 39.2 °F 30.13 in SSW 3.0 mph 7.0 mph 46 % 0.00 in
22:28 59.9 °F 39.0 °F 30.13 in South 3.0 mph 9.0 mph 46 % 0.00 in
22:33 59.7 °F 39.9 °F 30.13 in SSW 5.0 mph 9.0 mph 48 % 0.00 in
22:38 59.5 °F 40.3 °F 30.13 in SE 6.0 mph 9.0 mph 49 % 0.00 in
22:43 59.5 °F 40.8 °F 30.13 in SW 2.0 mph 9.0 mph 50 % 0.00 in
22:48 59.4 °F 41.7 °F 30.13 in South 2.0 mph 9.0 mph 52 % 0.00 in
22:53 59.4 °F 42.3 °F 30.13 in South 2.0 mph 9.0 mph 53 % 0.00 in
22:58 59.4 °F 42.8 °F 30.13 in SSW 3.0 mph 7.0 mph 54 % 0.00 in
23:03 59.2 °F 43.5 °F 30.13 in South 3.0 mph 8.0 mph 56 % 0.00 in
23:08 59.0 °F 43.3 °F 30.12 in South 3.0 mph 8.0 mph 56 % 0.00 in
23:13 58.8 °F 43.7 °F 30.12 in South 3.0 mph 8.0 mph 57 % 0.00 in
23:18 58.8 °F 44.1 °F 30.12 in SSW 3.0 mph 7.0 mph 58 % 0.00 in
23:23 58.6 °F 44.4 °F 30.12 in South 4.0 mph 6.0 mph 59 % 0.00 in
23:29 58.6 °F 44.8 °F 30.12 in SE 4.0 mph 6.0 mph 60 % 0.00 in
23:34 58.3 °F 44.4 °F 30.12 in SSE 5.0 mph 6.0 mph 60 % 0.00 in
23:39 58.1 °F 44.8 °F 30.12 in SSW 3.0 mph 6.0 mph 61 % 0.00 in
23:44 57.9 °F 45.0 °F 30.12 in SW 5.0 mph 5.0 mph 62 % 0.00 in
23:49 57.9 °F 45.3 °F 30.12 in South 4.0 mph 6.0 mph 63 % 0.00 in
23:54 57.9 °F 45.9 °F 30.12 in SSW 2.0 mph 6.0 mph 64 % 0.00 in
23:59 57.7 °F 46.0 °F 30.11 in South 4.0 mph 6.0 mph 65 % 0.00 in
Spring, Texas: Villages of Bridgestone
Compliments of Weather Underground - 2.75 mb

Script developed by  Jim McMurry - jmcmurry@mwt.net Adapted for the template by  Wim van der Kuil - Leuven-Template.eu

You find our weather info also at:

UK Metoffice

WeatherCloud

Weather Underground

Mid-South Weather Network

AWEKAS

Citizen Weather Observer Program (CWOP)

HAMweather, WeatherForYou, PWS Weather

Equipment we use:

Weather-station
Davis Vantage Vue

Weather-program
Meteohub

Weather-server
Debian 7.9 x86 (Guest)

Provider
DreamHost

Davis Vantage Vue

Meteohub

Debian 7.9 x86 (Guest)

DreamHost